sensor_id;sensor_type;location;lat;lon;timestamp;temperature;humidity
13589;DHT22;6865;52.552;13.434;2023-07-29T00:01:28;17.90;99.90
13589;DHT22;6865;52.552;13.434;2023-07-29T00:03:55;17.90;99.90
13589;DHT22;6865;52.552;13.434;2023-07-29T00:06:21;17.90;99.90
13589;DHT22;6865;52.552;13.434;2023-07-29T00:08:48;17.80;99.90
13589;DHT22;6865;52.552;13.434;2023-07-29T00:11:15;17.70;99.90
13589;DHT22;6865;52.552;13.434;2023-07-29T00:13:42;17.70;99.90
13589;DHT22;6865;52.552;13.434;2023-07-29T00:16:08;17.80;99.90
13589;DHT22;6865;52.552;13.434;2023-07-29T00:18:35;17.70;99.90
13589;DHT22;6865;52.552;13.434;2023-07-29T00:21:02;17.80;99.90
13589;DHT22;6865;52.552;13.434;2023-07-29T00:23:29;17.80;99.90
13589;DHT22;6865;52.552;13.434;2023-07-29T00:25:56;17.80;99.90
13589;DHT22;6865;52.552;13.434;2023-07-29T00:28:22;17.70;99.90
13589;DHT22;6865;52.552;13.434;2023-07-29T00:30:49;18.20;99.90
13589;DHT22;6865;52.552;13.434;2023-07-29T00:33:16;17.60;99.90
13589;DHT22;6865;52.552;13.434;2023-07-29T00:35:43;17.70;99.90
13589;DHT22;6865;52.552;13.434;2023-07-29T00:38:09;17.60;99.90
13589;DHT22;6865;52.552;13.434;2023-07-29T00:40:36;17.60;99.90
13589;DHT22;6865;52.552;13.434;2023-07-29T00:43:03;17.60;99.90
13589;DHT22;6865;52.552;13.434;2023-07-29T00:45:31;17.60;99.90
13589;DHT22;6865;52.552;13.434;2023-07-29T00:47:59;17.50;99.90
13589;DHT22;6865;52.552;13.434;2023-07-29T00:50:27;17.50;99.90
13589;DHT22;6865;52.552;13.434;2023-07-29T00:52:55;17.60;99.90
13589;DHT22;6865;52.552;13.434;2023-07-29T00:55:22;17.50;99.90
13589;DHT22;6865;52.552;13.434;2023-07-29T00:57:51;17.60;99.90
13589;DHT22;6865;52.552;13.434;2023-07-29T01:00:21;17.50;99.90
13589;DHT22;6865;52.552;13.434;2023-07-29T01:02:48;17.40;99.90
13589;DHT22;6865;52.552;13.434;2023-07-29T01:05:16;17.40;99.90
13589;DHT22;6865;52.552;13.434;2023-07-29T01:08:05;17.40;99.90
13589;DHT22;6865;52.552;13.434;2023-07-29T01:11:03;17.50;99.90
13589;DHT22;6865;52.552;13.434;2023-07-29T01:14:01;17.50;99.90
13589;DHT22;6865;52.552;13.434;2023-07-29T01:16:42;17.50;99.90
13589;DHT22;6865;52.552;13.434;2023-07-29T01:22:04;17.40;99.90
13589;DHT22;6865;52.552;13.434;2023-07-29T01:24:31;17.30;99.90
13589;DHT22;6865;52.552;13.434;2023-07-29T01:26:57;17.30;99.90
13589;DHT22;6865;52.552;13.434;2023-07-29T01:29:24;17.30;99.90
13589;DHT22;6865;52.552;13.434;2023-07-29T01:31:54;17.30;99.90
13589;DHT22;6865;52.552;13.434;2023-07-29T01:34:29;17.10;99.90
13589;DHT22;6865;52.552;13.434;2023-07-29T01:36:59;17.20;99.90
13589;DHT22;6865;52.552;13.434;2023-07-29T01:39:32;17.20;99.90
13589;DHT22;6865;52.552;13.434;2023-07-29T01:42:01;17.10;99.90
13589;DHT22;6865;52.552;13.434;2023-07-29T01:44:28;17.10;99.90
13589;DHT22;6865;52.552;13.434;2023-07-29T01:46:56;17.00;99.90
13589;DHT22;6865;52.552;13.434;2023-07-29T01:49:23;17.10;99.90
13589;DHT22;6865;52.552;13.434;2023-07-29T01:51:49;17.10;99.90
13589;DHT22;6865;52.552;13.434;2023-07-29T01:54:16;17.10;99.90
13589;DHT22;6865;52.552;13.434;2023-07-29T01:56:43;17.10;99.90
13589;DHT22;6865;52.552;13.434;2023-07-29T01:59:09;17.20;99.90
13589;DHT22;6865;52.552;13.434;2023-07-29T02:01:36;17.30;99.90
13589;DHT22;6865;52.552;13.434;2023-07-29T02:04:03;17.10;99.90
13589;DHT22;6865;52.552;13.434;2023-07-29T02:06:30;17.10;99.90
13589;DHT22;6865;52.552;13.434;2023-07-29T02:08:56;17.10;99.90
13589;DHT22;6865;52.552;13.434;2023-07-29T02:11:23;17.10;99.90
13589;DHT22;6865;52.552;13.434;2023-07-29T02:13:55;17.10;99.90
13589;DHT22;6865;52.552;13.434;2023-07-29T02:16:22;17.10;99.90
13589;DHT22;6865;52.552;13.434;2023-07-29T02:18:51;17.20;99.90
13589;DHT22;6865;52.552;13.434;2023-07-29T02:21:21;17.10;99.90
13589;DHT22;6865;52.552;13.434;2023-07-29T02:23:48;17.00;99.90
13589;DHT22;6865;52.552;13.434;2023-07-29T02:26:15;16.70;99.90
13589;DHT22;6865;52.552;13.434;2023-07-29T02:28:42;17.00;99.90
13589;DHT22;6865;52.552;13.434;2023-07-29T02:31:17;17.00;99.90
13589;DHT22;6865;52.552;13.434;2023-07-29T02:33:44;17.00;99.90
13589;DHT22;6865;52.552;13.434;2023-07-29T02:36:12;16.90;99.90
13589;DHT22;6865;52.552;13.434;2023-07-29T02:38:40;16.90;99.90
13589;DHT22;6865;52.552;13.434;2023-07-29T02:41:08;16.80;99.90
13589;DHT22;6865;52.552;13.434;2023-07-29T02:43:36;16.80;99.90
13589;DHT22;6865;52.552;13.434;2023-07-29T02:46:03;16.80;99.90
13589;DHT22;6865;52.552;13.434;2023-07-29T02:48:29;16.90;99.90
13589;DHT22;6865;52.552;13.434;2023-07-29T02:50:56;16.60;99.90
13589;DHT22;6865;52.552;13.434;2023-07-29T02:53:23;16.80;99.90
13589;DHT22;6865;52.552;13.434;2023-07-29T02:55:50;16.90;99.90
13589;DHT22;6865;52.552;13.434;2023-07-29T02:58:16;17.00;99.90
13589;DHT22;6865;52.552;13.434;2023-07-29T03:00:43;16.90;99.90
13589;DHT22;6865;52.552;13.434;2023-07-29T03:03:10;16.90;99.90
13589;DHT22;6865;52.552;13.434;2023-07-29T03:05:37;17.00;99.90
13589;DHT22;6865;52.552;13.434;2023-07-29T03:08:04;17.00;99.90
13589;DHT22;6865;52.552;13.434;2023-07-29T03:10:31;16.90;99.90
13589;DHT22;6865;52.552;13.434;2023-07-29T03:12:58;16.90;99.90
13589;DHT22;6865;52.552;13.434;2023-07-29T03:15:25;16.90;99.90
13589;DHT22;6865;52.552;13.434;2023-07-29T03:17:52;16.80;99.90
13589;DHT22;6865;52.552;13.434;2023-07-29T03:20:19;16.80;99.90
13589;DHT22;6865;52.552;13.434;2023-07-29T03:22:46;16.80;99.90
13589;DHT22;6865;52.552;13.434;2023-07-29T03:25:13;16.70;99.90
13589;DHT22;6865;52.552;13.434;2023-07-29T03:27:40;16.60;99.90
13589;DHT22;6865;52.552;13.434;2023-07-29T03:30:07;16.60;99.90
13589;DHT22;6865;52.552;13.434;2023-07-29T03:32:34;16.60;99.90
13589;DHT22;6865;52.552;13.434;2023-07-29T03:35:01;16.50;99.90
13589;DHT22;6865;52.552;13.434;2023-07-29T03:37:27;16.60;99.90
13589;DHT22;6865;52.552;13.434;2023-07-29T03:39:54;16.60;99.90
13589;DHT22;6865;52.552;13.434;2023-07-29T03:42:21;16.70;99.90
13589;DHT22;6865;52.552;13.434;2023-07-29T03:44:47;16.70;99.90
13589;DHT22;6865;52.552;13.434;2023-07-29T03:47:14;16.70;99.90
13589;DHT22;6865;52.552;13.434;2023-07-29T03:49:41;16.70;99.90
13589;DHT22;6865;52.552;13.434;2023-07-29T03:52:07;16.60;99.90
13589;DHT22;6865;52.552;13.434;2023-07-29T03:54:34;16.60;99.90
13589;DHT22;6865;52.552;13.434;2023-07-29T03:57:01;16.60;99.90
13589;DHT22;6865;52.552;13.434;2023-07-29T03:59:27;16.60;99.90
13589;DHT22;6865;52.552;13.434;2023-07-29T04:01:54;16.60;99.90
13589;DHT22;6865;52.552;13.434;2023-07-29T04:04:21;16.70;99.90
13589;DHT22;6865;52.552;13.434;2023-07-29T04:06:48;16.60;99.90
13589;DHT22;6865;52.552;13.434;2023-07-29T04:09:14;16.60;99.90
13589;DHT22;6865;52.552;13.434;2023-07-29T04:11:41;16.60;99.90
13589;DHT22;6865;52.552;13.434;2023-07-29T04:14:08;16.60;99.90
13589;DHT22;6865;52.552;13.434;2023-07-29T04:16:34;16.70;99.90
13589;DHT22;6865;52.552;13.434;2023-07-29T04:19:02;16.80;99.90
13589;DHT22;6865;52.552;13.434;2023-07-29T04:21:28;16.80;99.90
13589;DHT22;6865;52.552;13.434;2023-07-29T04:23:55;16.80;99.90
13589;DHT22;6865;52.552;13.434;2023-07-29T04:26:22;16.90;99.90
13589;DHT22;6865;52.552;13.434;2023-07-29T04:28:48;17.00;99.90
13589;DHT22;6865;52.552;13.434;2023-07-29T04:31:15;16.90;99.90
13589;DHT22;6865;52.552;13.434;2023-07-29T04:33:42;17.00;99.90
13589;DHT22;6865;52.552;13.434;2023-07-29T04:36:08;17.00;99.90
13589;DHT22;6865;52.552;13.434;2023-07-29T04:38:37;17.10;99.90
13589;DHT22;6865;52.552;13.434;2023-07-29T04:41:04;17.10;99.90
13589;DHT22;6865;52.552;13.434;2023-07-29T04:43:33;17.20;99.90
13589;DHT22;6865;52.552;13.434;2023-07-29T04:46:00;17.30;99.90
13589;DHT22;6865;52.552;13.434;2023-07-29T04:48:27;17.30;99.90
13589;DHT22;6865;52.552;13.434;2023-07-29T04:50:53;17.40;99.90
13589;DHT22;6865;52.552;13.434;2023-07-29T04:53:20;17.50;99.90
13589;DHT22;6865;52.552;13.434;2023-07-29T04:55:47;17.60;99.90
13589;DHT22;6865;52.552;13.434;2023-07-29T04:58:13;17.70;99.90
13589;DHT22;6865;52.552;13.434;2023-07-29T05:00:40;17.70;99.90
13589;DHT22;6865;52.552;13.434;2023-07-29T05:03:07;17.70;99.90
13589;DHT22;6865;52.552;13.434;2023-07-29T05:05:33;17.80;99.90
13589;DHT22;6865;52.552;13.434;2023-07-29T05:08:00;17.90;99.90
13589;DHT22;6865;52.552;13.434;2023-07-29T05:10:27;18.00;99.90
13589;DHT22;6865;52.552;13.434;2023-07-29T05:12:53;18.10;99.90
13589;DHT22;6865;52.552;13.434;2023-07-29T05:15:20;18.10;99.90
13589;DHT22;6865;52.552;13.434;2023-07-29T05:17:47;18.20;99.90
13589;DHT22;6865;52.552;13.434;2023-07-29T05:20:13;18.30;99.90
13589;DHT22;6865;52.552;13.434;2023-07-29T05:22:40;18.50;99.90
13589;DHT22;6865;52.552;13.434;2023-07-29T05:25:07;18.50;99.90
13589;DHT22;6865;52.552;13.434;2023-07-29T05:27:34;18.70;99.90
13589;DHT22;6865;52.552;13.434;2023-07-29T05:30:00;18.70;99.90
13589;DHT22;6865;52.552;13.434;2023-07-29T05:32:27;18.80;99.90
13589;DHT22;6865;52.552;13.434;2023-07-29T05:34:54;18.90;99.90
13589;DHT22;6865;52.552;13.434;2023-07-29T05:37:20;19.00;99.90
13589;DHT22;6865;52.552;13.434;2023-07-29T05:39:47;19.00;99.90
13589;DHT22;6865;52.552;13.434;2023-07-29T05:42:14;19.10;99.90
13589;DHT22;6865;52.552;13.434;2023-07-29T05:44:40;19.30;99.90
13589;DHT22;6865;52.552;13.434;2023-07-29T05:47:08;19.30;99.90
13589;DHT22;6865;52.552;13.434;2023-07-29T05:49:34;19.50;99.90
13589;DHT22;6865;52.552;13.434;2023-07-29T05:52:01;19.80;99.90
13589;DHT22;6865;52.552;13.434;2023-07-29T05:54:28;19.60;99.90
13589;DHT22;6865;52.552;13.434;2023-07-29T05:56:54;19.60;99.90
13589;DHT22;6865;52.552;13.434;2023-07-29T05:59:21;19.60;99.90
13589;DHT22;6865;52.552;13.434;2023-07-29T06:01:48;19.70;99.90
13589;DHT22;6865;52.552;13.434;2023-07-29T06:04:14;19.60;99.90
13589;DHT22;6865;52.552;13.434;2023-07-29T06:06:41;19.80;99.90
13589;DHT22;6865;52.552;13.434;2023-07-29T06:09:08;19.90;99.90
13589;DHT22;6865;52.552;13.434;2023-07-29T06:11:34;20.00;99.90
13589;DHT22;6865;52.552;13.434;2023-07-29T06:14:01;20.10;99.90
13589;DHT22;6865;52.552;13.434;2023-07-29T06:16:28;20.10;99.90
13589;DHT22;6865;52.552;13.434;2023-07-29T06:18:54;20.20;99.90
13589;DHT22;6865;52.552;13.434;2023-07-29T06:21:21;20.20;99.90
13589;DHT22;6865;52.552;13.434;2023-07-29T06:23:48;20.30;99.90
13589;DHT22;6865;52.552;13.434;2023-07-29T06:26:14;20.30;99.90
13589;DHT22;6865;52.552;13.434;2023-07-29T06:28:41;20.00;99.90
13589;DHT22;6865;52.552;13.434;2023-07-29T06:31:08;20.10;99.90
13589;DHT22;6865;52.552;13.434;2023-07-29T06:33:35;20.10;99.90
13589;DHT22;6865;52.552;13.434;2023-07-29T06:36:01;20.20;99.90
13589;DHT22;6865;52.552;13.434;2023-07-29T06:38:28;20.30;99.90
13589;DHT22;6865;52.552;13.434;2023-07-29T06:40:54;20.40;99.90
13589;DHT22;6865;52.552;13.434;2023-07-29T06:43:21;20.50;99.90
13589;DHT22;6865;52.552;13.434;2023-07-29T06:45:48;20.60;99.90
13589;DHT22;6865;52.552;13.434;2023-07-29T06:48:14;20.90;99.90
13589;DHT22;6865;52.552;13.434;2023-07-29T06:50:41;20.80;99.90
13589;DHT22;6865;52.552;13.434;2023-07-29T06:53:09;21.00;99.90
13589;DHT22;6865;52.552;13.434;2023-07-29T06:55:36;21.00;99.90
13589;DHT22;6865;52.552;13.434;2023-07-29T06:58:02;21.00;99.90
13589;DHT22;6865;52.552;13.434;2023-07-29T07:00:29;20.90;99.90
13589;DHT22;6865;52.552;13.434;2023-07-29T07:02:56;21.00;99.90
13589;DHT22;6865;52.552;13.434;2023-07-29T07:05:38;21.20;99.90
13589;DHT22;6865;52.552;13.434;2023-07-29T07:08:04;21.30;99.90
13589;DHT22;6865;52.552;13.434;2023-07-29T07:10:31;21.40;99.90
13589;DHT22;6865;52.552;13.434;2023-07-29T07:13:00;21.60;99.90
13589;DHT22;6865;52.552;13.434;2023-07-29T07:15:27;21.80;99.90
13589;DHT22;6865;52.552;13.434;2023-07-29T07:17:53;21.90;99.90
13589;DHT22;6865;52.552;13.434;2023-07-29T07:20:20;22.10;99.90
13589;DHT22;6865;52.552;13.434;2023-07-29T07:22:47;22.10;99.90
13589;DHT22;6865;52.552;13.434;2023-07-29T07:25:14;22.30;99.90
13589;DHT22;6865;52.552;13.434;2023-07-29T07:27:40;22.30;99.90
13589;DHT22;6865;52.552;13.434;2023-07-29T07:30:07;22.20;99.90
13589;DHT22;6865;52.552;13.434;2023-07-29T07:32:34;22.30;99.90
13589;DHT22;6865;52.552;13.434;2023-07-29T07:35:01;22.30;99.90
13589;DHT22;6865;52.552;13.434;2023-07-29T07:37:27;22.20;99.90
13589;DHT22;6865;52.552;13.434;2023-07-29T07:39:54;22.10;99.90
13589;DHT22;6865;52.552;13.434;2023-07-29T07:42:21;22.00;99.90
13589;DHT22;6865;52.552;13.434;2023-07-29T07:44:47;22.10;99.90
13589;DHT22;6865;52.552;13.434;2023-07-29T07:47:14;22.20;99.90
13589;DHT22;6865;52.552;13.434;2023-07-29T07:49:41;22.50;99.90
13589;DHT22;6865;52.552;13.434;2023-07-29T07:52:07;20.60;99.90
13589;DHT22;6865;52.552;13.434;2023-07-29T07:54:34;22.50;99.90
13589;DHT22;6865;52.552;13.434;2023-07-29T07:57:01;22.80;99.90
13589;DHT22;6865;52.552;13.434;2023-07-29T07:59:27;22.80;99.90
13589;DHT22;6865;52.552;13.434;2023-07-29T08:01:54;22.80;99.90
13589;DHT22;6865;52.552;13.434;2023-07-29T08:04:21;22.80;99.90
13589;DHT22;6865;52.552;13.434;2023-07-29T08:06:47;22.80;99.90
13589;DHT22;6865;52.552;13.434;2023-07-29T08:09:14;22.90;99.90
13589;DHT22;6865;52.552;13.434;2023-07-29T08:11:41;23.00;99.90
13589;DHT22;6865;52.552;13.434;2023-07-29T08:14:08;23.30;99.90
13589;DHT22;6865;52.552;13.434;2023-07-29T08:16:34;23.20;99.90
13589;DHT22;6865;52.552;13.434;2023-07-29T08:19:02;23.10;99.90
13589;DHT22;6865;52.552;13.434;2023-07-29T08:21:33;23.20;99.90
13589;DHT22;6865;52.552;13.434;2023-07-29T08:24:00;23.00;99.90
13589;DHT22;6865;52.552;13.434;2023-07-29T08:26:26;23.10;99.90
13589;DHT22;6865;52.552;13.434;2023-07-29T08:28:53;23.20;99.90
13589;DHT22;6865;52.552;13.434;2023-07-29T08:31:20;23.50;99.90
13589;DHT22;6865;52.552;13.434;2023-07-29T08:33:47;23.80;99.90
13589;DHT22;6865;52.552;13.434;2023-07-29T08:36:14;23.90;99.90
13589;DHT22;6865;52.552;13.434;2023-07-29T08:38:41;23.70;99.90
13589;DHT22;6865;52.552;13.434;2023-07-29T08:41:16;23.70;99.90
13589;DHT22;6865;52.552;13.434;2023-07-29T08:44:12;23.70;99.90
13589;DHT22;6865;52.552;13.434;2023-07-29T08:46:39;23.70;99.90
13589;DHT22;6865;52.552;13.434;2023-07-29T08:49:07;24.00;99.90
13589;DHT22;6865;52.552;13.434;2023-07-29T08:51:34;23.80;99.90
13589;DHT22;6865;52.552;13.434;2023-07-29T08:54:01;23.90;99.90
13589;DHT22;6865;52.552;13.434;2023-07-29T08:56:28;23.80;99.90
13589;DHT22;6865;52.552;13.434;2023-07-29T08:58:57;24.00;99.90
13589;DHT22;6865;52.552;13.434;2023-07-29T09:01:24;23.90;99.90
13589;DHT22;6865;52.552;13.434;2023-07-29T09:03:51;23.80;99.90
13589;DHT22;6865;52.552;13.434;2023-07-29T09:06:18;23.90;99.90
13589;DHT22;6865;52.552;13.434;2023-07-29T09:08:46;23.60;99.90
13589;DHT22;6865;52.552;13.434;2023-07-29T09:11:15;23.60;99.90
13589;DHT22;6865;52.552;13.434;2023-07-29T09:13:45;24.00;99.90
13589;DHT22;6865;52.552;13.434;2023-07-29T09:16:13;24.30;99.90
13589;DHT22;6865;52.552;13.434;2023-07-29T09:18:40;24.30;99.90
13589;DHT22;6865;52.552;13.434;2023-07-29T09:21:07;24.10;99.90
13589;DHT22;6865;52.552;13.434;2023-07-29T09:23:41;24.10;99.90
13589;DHT22;6865;52.552;13.434;2023-07-29T09:26:08;24.20;99.90
13589;DHT22;6865;52.552;13.434;2023-07-29T09:28:37;24.20;99.90
13589;DHT22;6865;52.552;13.434;2023-07-29T09:31:04;24.20;99.90
13589;DHT22;6865;52.552;13.434;2023-07-29T09:33:35;24.20;99.90
13589;DHT22;6865;52.552;13.434;2023-07-29T09:36:12;24.30;99.90
13589;DHT22;6865;52.552;13.434;2023-07-29T09:38:39;24.60;99.90
13589;DHT22;6865;52.552;13.434;2023-07-29T09:41:06;24.50;99.90
13589;DHT22;6865;52.552;13.434;2023-07-29T09:43:34;24.70;99.90
13589;DHT22;6865;52.552;13.434;2023-07-29T09:46:02;24.90;99.90
13589;DHT22;6865;52.552;13.434;2023-07-29T09:48:37;25.10;99.90
13589;DHT22;6865;52.552;13.434;2023-07-29T09:51:11;25.10;99.90
13589;DHT22;6865;52.552;13.434;2023-07-29T09:53:49;25.20;99.90
13589;DHT22;6865;52.552;13.434;2023-07-29T09:56:16;24.90;99.90
13589;DHT22;6865;52.552;13.434;2023-07-29T09:58:44;24.80;99.90
13589;DHT22;6865;52.552;13.434;2023-07-29T10:01:12;24.80;99.90
13589;DHT22;6865;52.552;13.434;2023-07-29T10:03:40;24.70;99.90
13589;DHT22;6865;52.552;13.434;2023-07-29T10:06:07;24.70;99.90
13589;DHT22;6865;52.552;13.434;2023-07-29T10:08:34;24.70;99.90
13589;DHT22;6865;52.552;13.434;2023-07-29T10:11:08;24.60;99.90
13589;DHT22;6865;52.552;13.434;2023-07-29T10:13:35;24.70;99.90
13589;DHT22;6865;52.552;13.434;2023-07-29T10:16:03;25.00;99.90
13589;DHT22;6865;52.552;13.434;2023-07-29T10:18:31;24.90;99.90
13589;DHT22;6865;52.552;13.434;2023-07-29T10:20:59;25.00;99.90
13589;DHT22;6865;52.552;13.434;2023-07-29T10:23:27;25.10;99.90
13589;DHT22;6865;52.552;13.434;2023-07-29T10:28:29;25.30;99.90
13589;DHT22;6865;52.552;13.434;2023-07-29T10:30:58;25.40;99.90
13589;DHT22;6865;52.552;13.434;2023-07-29T10:33:25;25.30;99.90
13589;DHT22;6865;52.552;13.434;2023-07-29T10:35:55;25.40;99.90
13589;DHT22;6865;52.552;13.434;2023-07-29T10:38:23;25.40;99.90
13589;DHT22;6865;52.552;13.434;2023-07-29T10:40:52;25.30;99.90
13589;DHT22;6865;52.552;13.434;2023-07-29T10:43:32;25.10;99.90
13589;DHT22;6865;52.552;13.434;2023-07-29T10:46:20;25.30;99.90
13589;DHT22;6865;52.552;13.434;2023-07-29T10:48:57;25.50;99.90
13589;DHT22;6865;52.552;13.434;2023-07-29T10:51:25;25.20;99.90
13589;DHT22;6865;52.552;13.434;2023-07-29T10:54:03;25.20;99.90
13589;DHT22;6865;52.552;13.434;2023-07-29T10:56:34;25.40;99.90
13589;DHT22;6865;52.552;13.434;2023-07-29T11:01:41;25.30;99.90
13589;DHT22;6865;52.552;13.434;2023-07-29T11:12:34;24.60;99.90
13589;DHT22;6865;52.552;13.434;2023-07-29T11:15:24;24.40;99.90
13589;DHT22;6865;52.552;13.434;2023-07-29T11:17:52;24.30;99.90
13589;DHT22;6865;52.552;13.434;2023-07-29T11:20:21;24.10;99.90
13589;DHT22;6865;52.552;13.434;2023-07-29T11:22:48;24.00;99.90
13589;DHT22;6865;52.552;13.434;2023-07-29T11:25:17;22.50;99.90
13589;DHT22;6865;52.552;13.434;2023-07-29T11:27:45;21.50;99.90
13589;DHT22;6865;52.552;13.434;2023-07-29T11:30:13;21.40;99.90
13589;DHT22;6865;52.552;13.434;2023-07-29T11:32:43;21.10;99.90
13589;DHT22;6865;52.552;13.434;2023-07-29T11:35:12;20.40;99.90
13589;DHT22;6865;52.552;13.434;2023-07-29T11:37:44;20.10;99.90
13589;DHT22;6865;52.552;13.434;2023-07-29T11:40:19;19.90;99.90
13589;DHT22;6865;52.552;13.434;2023-07-29T11:42:46;19.70;99.90
13589;DHT22;6865;52.552;13.434;2023-07-29T11:45:14;19.90;99.90
13589;DHT22;6865;52.552;13.434;2023-07-29T11:47:44;20.00;99.90
13589;DHT22;6865;52.552;13.434;2023-07-29T11:50:12;20.10;99.90
13589;DHT22;6865;52.552;13.434;2023-07-29T11:52:44;20.20;99.90
13589;DHT22;6865;52.552;13.434;2023-07-29T11:55:12;20.10;99.90
13589;DHT22;6865;52.552;13.434;2023-07-29T11:57:41;20.20;99.90
13589;DHT22;6865;52.552;13.434;2023-07-29T12:00:10;20.00;99.90
13589;DHT22;6865;52.552;13.434;2023-07-29T12:02:40;20.40;99.90
13589;DHT22;6865;52.552;13.434;2023-07-29T12:05:08;20.60;99.90
13589;DHT22;6865;52.552;13.434;2023-07-29T12:07:35;20.80;99.90
13589;DHT22;6865;52.552;13.434;2023-07-29T12:10:05;21.00;99.90
13589;DHT22;6865;52.552;13.434;2023-07-29T12:12:31;21.00;99.90
13589;DHT22;6865;52.552;13.434;2023-07-29T12:14:58;21.00;99.90
13589;DHT22;6865;52.552;13.434;2023-07-29T12:17:25;21.10;99.90
13589;DHT22;6865;52.552;13.434;2023-07-29T12:19:54;21.10;99.90
13589;DHT22;6865;52.552;13.434;2023-07-29T12:22:21;21.20;99.90
13589;DHT22;6865;52.552;13.434;2023-07-29T12:24:51;21.20;99.90
13589;DHT22;6865;52.552;13.434;2023-07-29T12:27:21;21.30;99.90
13589;DHT22;6865;52.552;13.434;2023-07-29T12:29:51;21.30;99.90
13589;DHT22;6865;52.552;13.434;2023-07-29T12:32:18;21.40;99.90
13589;DHT22;6865;52.552;13.434;2023-07-29T12:34:45;21.40;99.90
13589;DHT22;6865;52.552;13.434;2023-07-29T12:37:12;21.40;99.90
13589;DHT22;6865;52.552;13.434;2023-07-29T12:39:41;21.20;99.90
13589;DHT22;6865;52.552;13.434;2023-07-29T12:42:08;21.30;99.90
13589;DHT22;6865;52.552;13.434;2023-07-29T12:44:36;21.50;99.90
13589;DHT22;6865;52.552;13.434;2023-07-29T12:47:05;21.70;99.90
13589;DHT22;6865;52.552;13.434;2023-07-29T12:49:32;21.90;99.90
13589;DHT22;6865;52.552;13.434;2023-07-29T12:51:59;22.10;99.90
13589;DHT22;6865;52.552;13.434;2023-07-29T12:54:26;21.90;99.90
13589;DHT22;6865;52.552;13.434;2023-07-29T12:56:53;21.90;99.90
13589;DHT22;6865;52.552;13.434;2023-07-29T12:59:20;22.20;99.90
13589;DHT22;6865;52.552;13.434;2023-07-29T13:01:46;22.50;99.90
13589;DHT22;6865;52.552;13.434;2023-07-29T13:04:13;22.70;99.90
13589;DHT22;6865;52.552;13.434;2023-07-29T13:06:40;23.00;99.90
13589;DHT22;6865;52.552;13.434;2023-07-29T13:09:07;23.10;99.90
13589;DHT22;6865;52.552;13.434;2023-07-29T13:11:34;23.10;99.90
13589;DHT22;6865;52.552;13.434;2023-07-29T13:14:01;22.90;99.90
13589;DHT22;6865;52.552;13.434;2023-07-29T13:16:28;22.70;99.90
13589;DHT22;6865;52.552;13.434;2023-07-29T13:18:55;22.70;99.90
13589;DHT22;6865;52.552;13.434;2023-07-29T13:21:23;22.50;99.90
13589;DHT22;6865;52.552;13.434;2023-07-29T13:23:51;22.40;99.90
13589;DHT22;6865;52.552;13.434;2023-07-29T13:26:18;22.20;99.90
13589;DHT22;6865;52.552;13.434;2023-07-29T13:28:44;22.40;99.90
13589;DHT22;6865;52.552;13.434;2023-07-29T13:31:11;22.30;99.90
13589;DHT22;6865;52.552;13.434;2023-07-29T13:33:39;22.50;99.90
13589;DHT22;6865;52.552;13.434;2023-07-29T13:36:05;22.70;99.90
13589;DHT22;6865;52.552;13.434;2023-07-29T13:38:32;22.90;99.90
13589;DHT22;6865;52.552;13.434;2023-07-29T13:40:59;23.20;99.90
13589;DHT22;6865;52.552;13.434;2023-07-29T13:43:26;23.20;99.90
13589;DHT22;6865;52.552;13.434;2023-07-29T13:45:52;23.40;99.90
13589;DHT22;6865;52.552;13.434;2023-07-29T13:48:19;23.70;99.90
13589;DHT22;6865;52.552;13.434;2023-07-29T13:50:46;23.80;99.90
13589;DHT22;6865;52.552;13.434;2023-07-29T13:53:13;24.00;99.90
13589;DHT22;6865;52.552;13.434;2023-07-29T13:55:39;24.10;99.90
13589;DHT22;6865;52.552;13.434;2023-07-29T13:58:06;24.00;99.90
13589;DHT22;6865;52.552;13.434;2023-07-29T14:00:33;23.90;99.90
13589;DHT22;6865;52.552;13.434;2023-07-29T14:02:59;24.10;99.90
13589;DHT22;6865;52.552;13.434;2023-07-29T14:05:26;24.20;99.90
13589;DHT22;6865;52.552;13.434;2023-07-29T14:07:53;24.10;99.90
13589;DHT22;6865;52.552;13.434;2023-07-29T14:10:19;24.10;99.90
13589;DHT22;6865;52.552;13.434;2023-07-29T14:12:46;24.10;99.90
13589;DHT22;6865;52.552;13.434;2023-07-29T14:15:12;24.00;99.90
13589;DHT22;6865;52.552;13.434;2023-07-29T14:17:39;23.80;99.90
13589;DHT22;6865;52.552;13.434;2023-07-29T14:20:06;23.80;99.90
13589;DHT22;6865;52.552;13.434;2023-07-29T14:22:33;23.80;99.90
13589;DHT22;6865;52.552;13.434;2023-07-29T14:25:00;23.80;99.90
13589;DHT22;6865;52.552;13.434;2023-07-29T14:27:27;23.90;99.90
13589;DHT22;6865;52.552;13.434;2023-07-29T14:29:54;24.20;99.90
13589;DHT22;6865;52.552;13.434;2023-07-29T14:32:20;24.00;99.90
13589;DHT22;6865;52.552;13.434;2023-07-29T14:34:49;24.10;99.90
13589;DHT22;6865;52.552;13.434;2023-07-29T14:37:16;24.30;99.90
13589;DHT22;6865;52.552;13.434;2023-07-29T14:39:43;24.30;99.90
13589;DHT22;6865;52.552;13.434;2023-07-29T14:42:09;24.40;99.90
13589;DHT22;6865;52.552;13.434;2023-07-29T14:44:36;24.60;99.90
13589;DHT22;6865;52.552;13.434;2023-07-29T14:47:03;24.60;99.90
13589;DHT22;6865;52.552;13.434;2023-07-29T14:49:30;24.30;99.90
13589;DHT22;6865;52.552;13.434;2023-07-29T14:51:56;24.30;99.90
13589;DHT22;6865;52.552;13.434;2023-07-29T14:54:23;24.30;99.90
13589;DHT22;6865;52.552;13.434;2023-07-29T14:56:50;24.30;99.90
13589;DHT22;6865;52.552;13.434;2023-07-29T14:59:16;23.90;99.90
13589;DHT22;6865;52.552;13.434;2023-07-29T15:01:43;24.00;99.90
13589;DHT22;6865;52.552;13.434;2023-07-29T15:04:10;24.00;99.90
13589;DHT22;6865;52.552;13.434;2023-07-29T15:06:36;24.00;99.90
13589;DHT22;6865;52.552;13.434;2023-07-29T15:09:03;23.90;99.90
13589;DHT22;6865;52.552;13.434;2023-07-29T15:11:30;23.90;99.90
13589;DHT22;6865;52.552;13.434;2023-07-29T15:13:59;23.90;99.90
13589;DHT22;6865;52.552;13.434;2023-07-29T15:16:26;23.90;99.90
13589;DHT22;6865;52.552;13.434;2023-07-29T15:18:53;23.80;99.90
13589;DHT22;6865;52.552;13.434;2023-07-29T15:21:20;23.70;99.90
13589;DHT22;6865;52.552;13.434;2023-07-29T15:23:46;23.40;99.90
13589;DHT22;6865;52.552;13.434;2023-07-29T15:26:13;23.30;99.90
13589;DHT22;6865;52.552;13.434;2023-07-29T15:28:40;23.20;99.90
13589;DHT22;6865;52.552;13.434;2023-07-29T15:31:06;23.00;99.90
13589;DHT22;6865;52.552;13.434;2023-07-29T15:33:33;23.00;99.90
13589;DHT22;6865;52.552;13.434;2023-07-29T15:36:01;22.80;99.90
13589;DHT22;6865;52.552;13.434;2023-07-29T15:38:28;22.60;99.90
13589;DHT22;6865;52.552;13.434;2023-07-29T15:40:55;22.40;99.90
13589;DHT22;6865;52.552;13.434;2023-07-29T15:43:22;22.20;99.90
13589;DHT22;6865;52.552;13.434;2023-07-29T15:45:50;21.90;99.90
13589;DHT22;6865;52.552;13.434;2023-07-29T15:48:16;21.50;99.90
13589;DHT22;6865;52.552;13.434;2023-07-29T15:50:43;21.20;99.90